createdAt,value
2024-01-20T00:00:04.009Z,50.80
2024-01-20T00:01:04.023Z,47.30
2024-01-20T00:02:03.998Z,38.70
2024-01-20T00:03:03.886Z,42.90
2024-01-20T00:04:03.937Z,35.00
2024-01-20T00:05:03.968Z,42.20
2024-01-20T00:06:03.878Z,40.30
2024-01-20T00:07:03.918Z,42.40
2024-01-20T00:08:03.865Z,38.10
2024-01-20T00:09:03.826Z,40.90
2024-01-20T00:10:03.799Z,42.50
2024-01-20T00:11:03.813Z,46.00
2024-01-20T00:12:03.770Z,37.30
2024-01-20T00:13:03.759Z,42.10
2024-01-20T00:14:03.762Z,39.10
2024-01-20T00:15:03.719Z,39.40
2024-01-20T00:16:03.713Z,40.40
2024-01-20T00:17:09.318Z,43.10
2024-01-20T00:18:04.759Z,41.90
2024-01-20T00:19:03.782Z,38.40
2024-01-20T00:20:03.808Z,46.60
2024-01-20T00:21:03.654Z,37.90
2024-01-20T00:22:04.356Z,42.50
2024-01-20T00:23:03.704Z,40.80
2024-01-20T00:24:03.631Z,44.10
2024-01-20T00:25:04.001Z,40.00
2024-01-20T00:26:03.601Z,46.10
2024-01-20T00:27:03.608Z,42.80
2024-01-20T00:28:03.586Z,40.70
2024-01-20T00:29:03.623Z,38.80
2024-01-20T00:30:03.645Z,41.90
2024-01-20T00:31:03.605Z,42.40
2024-01-20T00:32:03.637Z,40.00
2024-01-20T00:33:03.728Z,45.40
2024-01-20T00:34:03.546Z,41.40
2024-01-20T00:35:07.303Z,34.80
2024-01-20T00:36:04.509Z,45.30
2024-01-20T00:37:03.537Z,40.40
2024-01-20T00:38:03.521Z,36.40
2024-01-20T00:39:03.454Z,37.50
2024-01-20T00:40:03.461Z,33.50
2024-01-20T00:41:03.485Z,41.50
2024-01-20T00:42:03.417Z,37.90
2024-01-20T00:43:03.476Z,36.90
2024-01-20T00:44:03.407Z,39.90
2024-01-20T00:45:03.422Z,33.80
2024-01-20T00:46:03.549Z,37.30
2024-01-20T00:47:03.390Z,42.30
2024-01-20T00:48:03.512Z,38.40
2024-01-20T00:49:03.390Z,41.90
2024-01-20T00:50:03.344Z,37.60
2024-01-20T00:51:03.326Z,39.30
2024-01-20T00:52:03.366Z,40.50
2024-01-20T00:53:03.373Z,43.60
2024-01-20T00:54:03.349Z,36.00
2024-01-20T00:55:03.268Z,37.40
2024-01-20T00:56:03.307Z,34.40
2024-01-20T00:57:03.254Z,37.90
2024-01-20T00:58:03.347Z,36.00
2024-01-20T00:59:03.281Z,35.10
2024-01-20T01:00:03.257Z,34.00
2024-01-20T01:01:03.329Z,36.10
2024-01-20T01:02:03.304Z,37.00
2024-01-20T01:03:03.265Z,34.60
2024-01-20T01:04:03.307Z,40.00
2024-01-20T01:05:03.168Z,38.30
2024-01-20T01:06:03.156Z,38.10
2024-01-20T01:07:03.152Z,39.70
2024-01-20T01:08:03.212Z,38.60
2024-01-20T01:09:03.108Z,37.90
2024-01-20T01:10:03.190Z,37.70
2024-01-20T01:11:03.138Z,41.10
2024-01-20T01:12:03.073Z,35.40
2024-01-20T01:13:03.080Z,38.40
2024-01-20T01:14:03.228Z,36.20
2024-01-20T01:15:03.379Z,40.30
2024-01-20T01:16:03.067Z,37.40
2024-01-20T01:17:03.087Z,39.40
2024-01-20T01:18:03.043Z,40.90
2024-01-20T01:19:03.180Z,38.50
2024-01-20T01:20:03.050Z,31.40
2024-01-20T01:21:03.018Z,35.80
2024-01-20T01:22:03.025Z,40.50
2024-01-20T01:23:02.969Z,39.20
2024-01-20T01:24:03.108Z,39.00
2024-01-20T01:25:02.916Z,43.20
2024-01-20T01:26:02.997Z,33.10
2024-01-20T01:27:02.943Z,35.40
2024-01-20T01:28:03.006Z,38.30
2024-01-20T01:29:03.142Z,38.80
2024-01-20T01:30:03.024Z,36.20
2024-01-20T01:31:02.930Z,37.10
2024-01-20T01:32:02.856Z,33.80
2024-01-20T01:33:06.806Z,34.70
2024-01-20T01:34:02.843Z,35.40
2024-01-20T01:35:02.865Z,32.90
2024-01-20T01:36:02.834Z,36.30
2024-01-20T01:37:02.802Z,34.80
2024-01-20T01:38:02.841Z,33.20
2024-01-20T01:39:02.840Z,30.90
2024-01-20T01:40:02.826Z,36.40
2024-01-20T01:41:02.984Z,32.00
2024-01-20T01:42:02.743Z,34.70
2024-01-20T01:43:02.725Z,38.10
2024-01-20T01:44:02.817Z,32.80
2024-01-20T01:45:02.776Z,30.10
2024-01-20T01:46:02.714Z,34.70
2024-01-20T01:47:02.766Z,36.90
2024-01-20T01:48:02.755Z,31.30
2024-01-20T01:49:02.702Z,27.50
2024-01-20T01:50:02.676Z,30.60
2024-01-20T01:51:02.657Z,31.50
2024-01-20T01:52:02.642Z,32.60
2024-01-20T01:53:02.830Z,32.20
2024-01-20T01:54:03.555Z,32.90
2024-01-20T01:55:02.576Z,36.40
2024-01-20T01:56:02.605Z,29.50
2024-01-20T01:57:02.653Z,28.40
2024-01-20T01:58:02.549Z,31.80
2024-01-20T01:59:02.640Z,30.60
2024-01-20T02:00:02.613Z,29.00
2024-01-20T02:01:02.540Z,31.20
2024-01-20T02:02:02.604Z,32.40
2024-01-20T02:03:02.744Z,24.70
2024-01-20T02:04:02.498Z,32.40
2024-01-20T02:05:02.582Z,28.40
2024-01-20T02:06:02.485Z,27.50
2024-01-20T02:07:02.533Z,33.80
2024-01-20T02:08:02.452Z,30.00
2024-01-20T02:09:02.460Z,31.70
2024-01-20T02:10:02.410Z,28.20
2024-01-20T02:11:02.513Z,28.40
2024-01-20T02:12:02.426Z,29.60
2024-01-20T02:13:02.434Z,34.90
2024-01-20T02:14:02.396Z,33.90
2024-01-20T02:15:02.373Z,35.40
2024-01-20T02:16:02.361Z,33.30
2024-01-20T02:17:02.366Z,31.50
2024-01-20T02:18:02.369Z,30.80
2024-01-20T02:19:02.423Z,33.90
2024-01-20T02:20:02.363Z,27.70
2024-01-20T02:21:02.345Z,30.90
2024-01-20T02:22:02.313Z,28.80
2024-01-20T02:23:02.309Z,30.60
2024-01-20T02:24:02.304Z,30.80
2024-01-20T02:25:02.267Z,34.00
2024-01-20T02:26:02.306Z,26.50
2024-01-20T02:27:02.315Z,35.10
2024-01-20T02:28:02.248Z,32.40
2024-01-20T02:29:02.197Z,29.50
2024-01-20T02:30:02.381Z,29.40
2024-01-20T02:31:02.176Z,27.00
2024-01-20T02:32:02.165Z,29.90
2024-01-20T02:33:02.249Z,31.60
2024-01-20T02:34:02.365Z,34.50
2024-01-20T02:35:02.301Z,32.20
2024-01-20T02:36:02.160Z,33.70
2024-01-20T02:37:02.197Z,37.00
2024-01-20T02:38:02.096Z,30.50
2024-01-20T02:39:02.138Z,34.80
2024-01-20T02:40:02.094Z,31.70
2024-01-20T02:41:02.155Z,27.40
2024-01-20T02:42:02.135Z,34.90
2024-01-20T02:43:02.158Z,31.40
2024-01-20T02:44:02.037Z,28.40
2024-01-20T02:45:02.084Z,30.00
2024-01-20T02:46:02.089Z,28.00
2024-01-20T02:47:01.998Z,25.70
2024-01-20T02:48:02.292Z,27.40
2024-01-20T02:49:02.158Z,24.90
2024-01-20T02:50:02.107Z,31.30
2024-01-20T02:51:02.017Z,29.90
2024-01-20T02:52:01.943Z,30.60
2024-01-20T02:53:01.950Z,29.90
2024-01-20T02:54:01.988Z,29.00
2024-01-20T02:55:01.993Z,29.70
2024-01-20T02:56:01.957Z,29.10
2024-01-20T02:57:01.978Z,21.50
2024-01-20T02:58:01.877Z,23.10
2024-01-20T02:59:01.857Z,17.70
2024-01-20T03:00:01.935Z,17.70
2024-01-20T03:01:02.079Z,19.20
2024-01-20T03:02:01.913Z,23.20
2024-01-20T03:03:01.998Z,19.40
2024-01-20T03:04:02.031Z,19.50
2024-01-20T03:05:02.792Z,19.60
2024-01-20T03:06:02.432Z,19.50
2024-01-20T03:07:02.142Z,19.00
2024-01-20T03:08:01.894Z,18.30
2024-01-20T03:09:01.919Z,17.50
2024-01-20T03:10:02.336Z,17.30
2024-01-20T03:11:01.815Z,18.50
2024-01-20T03:12:01.807Z,21.50
2024-01-20T03:13:02.406Z,20.60
2024-01-20T03:14:01.777Z,19.20
2024-01-20T03:15:02.712Z,16.40
2024-01-20T03:16:01.848Z,16.80
2024-01-20T03:17:01.699Z,14.80
2024-01-20T03:18:01.837Z,18.00
2024-01-20T03:19:01.724Z,15.00
2024-01-20T03:20:01.752Z,17.20
2024-01-20T03:21:01.720Z,20.00
2024-01-20T03:22:01.731Z,17.50
2024-01-20T03:23:01.646Z,18.60
2024-01-20T03:24:01.793Z,21.60
2024-01-20T03:25:01.662Z,19.30
2024-01-20T03:26:01.617Z,17.00
2024-01-20T03:27:01.673Z,18.00
2024-01-20T03:28:01.576Z,16.30
2024-01-20T03:29:01.557Z,16.70
2024-01-20T03:30:01.614Z,15.40
2024-01-20T03:31:01.555Z,13.90
2024-01-20T03:32:01.569Z,13.40
2024-01-20T03:33:01.601Z,16.90
2024-01-20T03:34:01.578Z,11.10
2024-01-20T03:35:01.489Z,18.50
2024-01-20T03:36:01.532Z,14.80
2024-01-20T03:37:01.511Z,13.90
2024-01-20T03:38:01.437Z,17.40
2024-01-20T03:39:01.458Z,12.50
2024-01-20T03:40:01.473Z,15.00
2024-01-20T03:41:01.445Z,14.30
2024-01-20T03:42:01.585Z,16.00
2024-01-20T03:43:01.428Z,14.20
2024-01-20T03:44:01.668Z,17.50
2024-01-20T03:45:01.402Z,13.20
2024-01-20T03:46:01.522Z,15.30
2024-01-20T03:47:01.350Z,14.30
2024-01-20T03:48:01.446Z,14.70
2024-01-20T03:49:01.509Z,17.70
2024-01-20T03:50:01.530Z,17.30
2024-01-20T03:51:01.438Z,15.40
2024-01-20T03:52:02.093Z,17.50
2024-01-20T03:53:01.790Z,14.80
2024-01-20T03:54:01.418Z,16.40
2024-01-20T03:55:01.329Z,17.80
2024-01-20T03:56:01.272Z,15.60
2024-01-20T03:57:01.324Z,14.20
2024-01-20T03:58:01.240Z,17.50
2024-01-20T03:59:01.355Z,14.30
2024-01-20T04:00:01.275Z,14.00
2024-01-20T04:01:01.233Z,15.60
2024-01-20T04:02:01.196Z,14.40
2024-01-20T04:03:01.316Z,15.00
2024-01-20T04:04:01.336Z,19.30
2024-01-20T04:05:01.213Z,17.60
2024-01-20T04:06:01.175Z,17.50
2024-01-20T04:07:01.133Z,12.40
2024-01-20T04:08:01.125Z,14.70
2024-01-20T04:09:01.172Z,11.80
2024-01-20T04:10:01.111Z,15.10
2024-01-20T04:11:01.109Z,13.40
2024-01-20T04:12:01.191Z,14.00
2024-01-20T04:13:01.093Z,12.90
2024-01-20T04:14:01.084Z,14.10
2024-01-20T04:15:01.085Z,15.40
2024-01-20T04:16:01.060Z,12.90
2024-01-20T04:17:01.075Z,13.30
2024-01-20T04:18:01.484Z,17.60
2024-01-20T04:19:01.141Z,17.40
2024-01-20T04:20:01.020Z,21.50
2024-01-20T04:21:01.007Z,14.60
2024-01-20T04:22:00.975Z,18.00
2024-01-20T04:23:01.045Z,15.50
2024-01-20T04:24:01.051Z,18.40
2024-01-20T04:25:01.134Z,16.60
2024-01-20T04:26:00.973Z,17.80
2024-01-20T04:27:00.964Z,15.60
2024-01-20T04:28:00.928Z,18.70
2024-01-20T04:29:00.891Z,12.80
2024-01-20T04:30:00.960Z,16.40
2024-01-20T04:31:00.876Z,17.10
2024-01-20T04:32:00.924Z,18.60
2024-01-20T04:33:00.939Z,18.40
2024-01-20T04:34:00.914Z,18.80
2024-01-20T04:35:00.873Z,18.00
2024-01-20T04:36:00.906Z,18.30
2024-01-20T04:37:00.810Z,18.50
2024-01-20T04:38:00.814Z,17.80
2024-01-20T04:39:00.801Z,19.60
2024-01-20T04:40:00.977Z,12.60
2024-01-20T04:41:00.763Z,16.00
2024-01-20T04:42:00.837Z,16.60
2024-01-20T04:43:00.758Z,14.30
2024-01-20T04:44:00.734Z,16.60
2024-01-20T04:45:00.858Z,13.90
2024-01-20T04:46:00.830Z,15.80
2024-01-20T04:47:00.735Z,22.60
2024-01-20T04:48:00.829Z,24.10
2024-01-20T04:49:00.889Z,21.40
2024-01-20T04:50:00.705Z,20.10
2024-01-20T04:51:00.745Z,25.60
2024-01-20T04:52:00.830Z,27.80
2024-01-20T04:53:00.677Z,21.00
2024-01-20T04:54:00.725Z,23.70
2024-01-20T04:55:00.631Z,40.90
2024-01-20T04:56:00.634Z,25.60
2024-01-20T04:57:00.643Z,20.90
2024-01-20T04:58:00.654Z,28.70
2024-01-20T04:59:00.630Z,24.40
2024-01-20T05:00:00.800Z,27.60
2024-01-20T05:01:00.576Z,22.50
2024-01-20T05:02:00.562Z,26.80
2024-01-20T05:03:00.620Z,23.50
2024-01-20T05:04:00.648Z,28.30
2024-01-20T05:05:00.543Z,28.20
2024-01-20T05:06:00.596Z,30.30
2024-01-20T05:07:00.664Z,27.30
2024-01-20T05:08:00.476Z,31.40
2024-01-20T05:09:00.504Z,26.00
2024-01-20T05:10:00.453Z,29.20
2024-01-20T05:11:00.510Z,31.70
2024-01-20T05:12:00.568Z,28.90
2024-01-20T05:13:00.435Z,26.20
2024-01-20T05:14:00.410Z,35.80
2024-01-20T05:15:00.550Z,27.00
2024-01-20T05:16:00.390Z,22.00
2024-01-20T05:17:00.407Z,28.70
2024-01-20T05:18:00.630Z,22.20
2024-01-20T05:19:00.508Z,27.50
2024-01-20T05:20:00.636Z,26.80
2024-01-20T05:21:00.414Z,25.80
2024-01-20T05:22:00.328Z,21.00
2024-01-20T05:23:00.318Z,24.20
2024-01-20T05:24:00.341Z,21.00
2024-01-20T05:25:00.283Z,22.90
2024-01-20T05:26:00.270Z,14.80
2024-01-20T05:27:00.365Z,16.70
2024-01-20T05:28:00.292Z,18.60
2024-01-20T05:29:00.258Z,11.90
2024-01-20T05:30:00.300Z,15.00
2024-01-20T05:31:00.243Z,11.00
2024-01-20T05:32:00.260Z,15.70
2024-01-20T05:33:00.338Z,10.00
2024-01-20T05:34:00.647Z,13.90
2024-01-20T05:35:00.325Z,17.40
2024-01-20T05:36:00.240Z,13.90
2024-01-20T05:37:00.186Z,12.00
2024-01-20T05:38:00.249Z,16.50
2024-01-20T05:39:00.207Z,15.30
2024-01-20T05:40:00.202Z,18.30
2024-01-20T05:41:00.156Z,14.20
2024-01-20T05:42:00.160Z,16.10
2024-01-20T05:43:00.176Z,17.20
2024-01-20T05:44:00.190Z,22.10
2024-01-20T05:45:00.268Z,18.20
2024-01-20T05:46:00.073Z,23.70
2024-01-20T05:47:00.222Z,20.00
2024-01-20T05:48:00.481Z,16.70
2024-01-20T05:49:00.255Z,16.20
2024-01-20T05:50:00.183Z,19.00
2024-01-20T05:51:00.140Z,13.60
2024-01-20T05:52:00.072Z,17.80
2024-01-20T05:53:00.116Z,18.10
2024-01-20T05:54:00.040Z,30.20
2024-01-20T05:55:00.596Z,19.70
2024-01-20T05:56:00.226Z,19.60
2024-01-20T05:57:00.031Z,20.00
2024-01-20T05:58:00.123Z,15.30
2024-01-20T05:58:59.984Z,17.10
2024-01-20T05:59:59.947Z,20.50
2024-01-20T06:01:00.586Z,15.50
2024-01-20T06:01:59.994Z,16.90
2024-01-20T06:03:00.034Z,20.60
2024-01-20T06:04:00.033Z,17.30
2024-01-20T06:05:00.152Z,15.90
2024-01-20T06:05:59.977Z,19.60
2024-01-20T06:07:00.157Z,18.70
2024-01-20T06:07:59.961Z,18.70
2024-01-20T06:08:59.914Z,22.20
2024-01-20T06:09:59.890Z,21.50
2024-01-20T06:10:59.845Z,20.40
2024-01-20T06:11:59.955Z,23.10
2024-01-20T06:13:00.358Z,17.30
2024-01-20T06:13:59.931Z,21.00
2024-01-20T06:15:00.004Z,25.60
2024-01-20T06:15:59.808Z,23.30
2024-01-20T06:16:59.813Z,21.40
2024-01-20T06:18:00.069Z,21.00
2024-01-20T06:19:00.103Z,18.30
2024-01-20T06:19:59.739Z,20.20
2024-01-20T06:20:59.722Z,12.10
2024-01-20T06:21:59.789Z,16.10
2024-01-20T06:22:59.764Z,17.40
2024-01-20T06:23:59.849Z,19.10
2024-01-20T06:24:59.692Z,11.20
2024-01-20T06:25:59.749Z,13.20
2024-01-20T06:26:59.719Z,16.40
2024-01-20T06:27:59.647Z,12.60
2024-01-20T06:28:59.700Z,15.40
2024-01-20T06:29:59.731Z,12.70
2024-01-20T06:30:59.663Z,12.50
2024-01-20T06:31:59.603Z,12.00
2024-01-20T06:32:59.781Z,10.00
2024-01-20T06:33:59.810Z,10.10
2024-01-20T06:34:59.609Z,10.70
2024-01-20T06:35:59.644Z,12.50
2024-01-20T06:36:59.590Z,10.40
2024-01-20T06:37:59.670Z,13.30
2024-01-20T06:38:59.575Z,12.50
2024-01-20T06:39:59.497Z,13.40
2024-01-20T06:40:59.484Z,8.40
2024-01-20T06:41:59.652Z,9.90
2024-01-20T06:42:59.557Z,11.80
2024-01-20T06:44:00.289Z,9.00
2024-01-20T06:45:01.298Z,12.20
2024-01-20T06:46:00.233Z,12.70
2024-01-20T06:46:59.484Z,11.50
2024-01-20T06:47:59.566Z,10.70
2024-01-20T06:48:59.572Z,11.10
2024-01-20T06:49:59.482Z,11.40
2024-01-20T06:50:59.461Z,16.00
2024-01-20T06:51:59.345Z,11.10
2024-01-20T06:52:59.445Z,14.10
2024-01-20T06:53:59.579Z,12.50
2024-01-20T06:54:59.417Z,12.50
2024-01-20T06:55:59.366Z,11.30
2024-01-20T06:56:59.380Z,12.00
2024-01-20T06:57:59.339Z,12.40
2024-01-20T06:58:59.273Z,9.20
2024-01-20T06:59:59.380Z,15.70
2024-01-20T07:00:59.339Z,12.10
2024-01-20T07:01:59.435Z,9.20
2024-01-20T07:02:59.389Z,12.10
2024-01-20T07:03:59.359Z,10.50
2024-01-20T07:04:59.257Z,15.80
2024-01-20T07:05:59.623Z,9.80
2024-01-20T07:06:59.238Z,14.70
2024-01-20T07:07:59.242Z,12.90
2024-01-20T07:08:59.239Z,11.60
2024-01-20T07:09:59.182Z,14.30
2024-01-20T07:10:59.157Z,12.90
2024-01-20T07:11:59.482Z,13.90
2024-01-20T07:12:59.865Z,14.40
2024-01-20T07:13:59.105Z,13.80
2024-01-20T07:14:59.188Z,12.20
2024-01-20T07:15:59.163Z,13.10
2024-01-20T07:16:59.076Z,13.80
2024-01-20T07:17:59.188Z,13.10
2024-01-20T07:18:59.113Z,12.90
2024-01-20T07:19:59.040Z,14.30
2024-01-20T07:20:59.113Z,10.70
2024-01-20T07:21:59.070Z,14.40
2024-01-20T07:22:59.008Z,12.60
2024-01-20T07:23:59.086Z,13.00
2024-01-20T07:24:59.051Z,12.70
2024-01-20T07:25:59.023Z,14.50
2024-01-20T07:26:59.026Z,12.30
2024-01-20T07:27:58.945Z,12.30
2024-01-20T07:28:59.503Z,12.00
2024-01-20T07:29:58.958Z,13.20
2024-01-20T07:30:58.903Z,11.00
2024-01-20T07:31:58.917Z,9.80
2024-01-20T07:32:59.008Z,14.20
2024-01-20T07:33:58.969Z,9.80
2024-01-20T07:34:58.927Z,12.80
2024-01-20T07:35:58.904Z,13.40
2024-01-20T07:36:58.909Z,14.90
2024-01-20T07:37:58.858Z,10.90
2024-01-20T07:38:58.912Z,13.90
2024-01-20T07:39:58.868Z,14.90
2024-01-20T07:40:58.803Z,10.30
2024-01-20T07:41:58.893Z,15.00
2024-01-20T07:42:58.800Z,11.60
2024-01-20T07:43:58.796Z,11.00
2024-01-20T07:44:58.829Z,12.30
2024-01-20T07:45:58.768Z,15.90
2024-01-20T07:46:58.756Z,9.80
2024-01-20T07:47:58.785Z,11.90
2024-01-20T07:48:58.816Z,11.40
2024-01-20T07:49:58.715Z,14.30
2024-01-20T07:50:58.801Z,13.00
2024-01-20T07:51:58.701Z,13.70
2024-01-20T07:52:58.696Z,13.70
2024-01-20T07:53:58.728Z,10.90
2024-01-20T07:54:58.689Z,12.10
2024-01-20T07:55:58.652Z,21.20
2024-01-20T07:56:58.693Z,11.80
2024-01-20T07:57:58.621Z,14.50
2024-01-20T07:58:58.629Z,12.30
2024-01-20T07:59:58.673Z,12.90
2024-01-20T08:00:58.989Z,13.40
2024-01-20T08:01:58.640Z,11.80
2024-01-20T08:02:58.794Z,11.80
2024-01-20T08:03:58.599Z,13.10
2024-01-20T08:04:58.541Z,13.50
2024-01-20T08:05:58.613Z,12.30
2024-01-20T08:06:58.647Z,10.80
2024-01-20T08:07:58.558Z,14.10
2024-01-20T08:08:58.569Z,12.00
2024-01-20T08:09:58.612Z,12.80
2024-01-20T08:10:58.475Z,12.20
2024-01-20T08:11:58.515Z,15.30
2024-01-20T08:12:58.463Z,17.20
2024-01-20T08:13:58.471Z,11.20
2024-01-20T08:14:58.803Z,15.90
2024-01-20T08:15:58.437Z,16.10
2024-01-20T08:16:58.418Z,12.70
2024-01-20T08:17:58.592Z,12.80
2024-01-20T08:18:58.564Z,14.30
2024-01-20T08:19:58.527Z,12.60
2024-01-20T08:20:58.416Z,12.00
2024-01-20T08:21:58.369Z,12.70
2024-01-20T08:22:58.363Z,15.20
2024-01-20T08:23:58.405Z,15.20
2024-01-20T08:24:58.398Z,15.10
2024-01-20T08:25:58.326Z,15.30
2024-01-20T08:26:58.314Z,14.80
2024-01-20T08:27:58.294Z,18.20
2024-01-20T08:28:58.291Z,15.10
2024-01-20T08:29:58.436Z,12.20
2024-01-20T08:30:58.416Z,16.00
2024-01-20T08:31:58.278Z,16.90
2024-01-20T08:33:01.693Z,12.50
2024-01-20T08:33:59.314Z,17.70
2024-01-20T08:34:58.256Z,18.90
2024-01-20T08:35:58.504Z,18.60
2024-01-20T08:36:58.204Z,18.70
2024-01-20T08:37:58.198Z,14.60
2024-01-20T08:38:58.224Z,15.40
2024-01-20T08:39:58.156Z,16.10
2024-01-20T08:40:59.206Z,16.40
2024-01-20T08:41:58.191Z,12.10
2024-01-20T08:42:58.157Z,16.50
2024-01-20T08:43:58.174Z,18.20
2024-01-20T08:44:58.110Z,17.00
2024-01-20T08:45:58.099Z,15.30
2024-01-20T08:46:58.105Z,12.60
2024-01-20T08:47:58.157Z,12.60
2024-01-20T08:48:58.092Z,12.00
2024-01-20T08:49:58.060Z,14.00
2024-01-20T08:50:58.073Z,13.60
2024-01-20T08:51:58.031Z,16.40
2024-01-20T08:52:58.087Z,10.70
2024-01-20T08:53:58.073Z,14.10
2024-01-20T08:54:58.028Z,13.60
2024-01-20T08:55:58.021Z,16.10
2024-01-20T08:56:58.037Z,12.20
2024-01-20T08:57:58.031Z,12.10
2024-01-20T08:58:58.002Z,12.90
2024-01-20T08:59:57.982Z,13.10
2024-01-20T09:00:58.125Z,16.40
2024-01-20T09:01:57.959Z,17.10
2024-01-20T09:02:57.993Z,15.60
2024-01-20T09:03:58.087Z,15.20
2024-01-20T09:04:57.943Z,17.20
2024-01-20T09:05:57.984Z,15.60
2024-01-20T09:06:57.912Z,11.90
2024-01-20T09:07:57.868Z,15.60
2024-01-20T09:08:57.984Z,15.90
2024-01-20T09:09:59.615Z,15.30
2024-01-20T09:10:58.293Z,15.40
2024-01-20T09:11:57.898Z,12.30
2024-01-20T09:12:57.831Z,18.30
2024-01-20T09:13:57.804Z,21.60
2024-01-20T09:14:57.910Z,22.70
2024-01-20T09:15:57.859Z,27.10
2024-01-20T09:16:57.850Z,23.90
2024-01-20T09:17:58.007Z,22.50
2024-01-20T09:18:57.879Z,26.30
2024-01-20T09:19:57.900Z,23.20
2024-01-20T09:20:57.775Z,18.60
2024-01-20T09:21:57.758Z,19.90
2024-01-20T09:22:57.796Z,16.00
2024-01-20T09:23:57.770Z,23.00
2024-01-20T09:24:57.688Z,21.90
2024-01-20T09:25:57.698Z,29.00
2024-01-20T09:26:57.701Z,22.50
2024-01-20T09:27:57.670Z,27.30
2024-01-20T09:28:57.711Z,25.90
2024-01-20T09:29:57.629Z,22.70
2024-01-20T09:30:57.661Z,30.20
2024-01-20T09:31:57.685Z,26.80
2024-01-20T09:32:57.679Z,26.40
2024-01-20T09:33:57.733Z,25.20
2024-01-20T09:34:57.644Z,28.20
2024-01-20T09:35:57.617Z,30.00
2024-01-20T09:36:57.580Z,29.90
2024-01-20T09:37:57.520Z,29.00
2024-01-20T09:38:57.601Z,26.90
2024-01-20T09:39:57.650Z,22.60
2024-01-20T09:40:57.523Z,25.00
2024-01-20T09:41:57.566Z,19.60
2024-01-20T09:42:57.524Z,18.00
2024-01-20T09:43:57.488Z,25.20
2024-01-20T09:44:57.548Z,25.30
2024-01-20T09:45:57.502Z,26.20
2024-01-20T09:46:57.415Z,21.40
2024-01-20T09:47:57.542Z,22.90
2024-01-20T09:48:57.602Z,23.50
2024-01-20T09:49:58.309Z,25.70
2024-01-20T09:50:57.404Z,24.80
2024-01-20T09:51:57.378Z,22.20
2024-01-20T09:52:57.362Z,22.30
2024-01-20T09:53:57.330Z,28.40
2024-01-20T09:54:57.369Z,25.30
2024-01-20T09:55:57.343Z,25.30
2024-01-20T09:56:57.411Z,25.60
2024-01-20T09:57:57.584Z,29.20
2024-01-20T09:58:57.389Z,27.80
2024-01-20T09:59:58.221Z,25.10
2024-01-20T10:00:57.434Z,29.00
2024-01-20T10:01:58.252Z,25.00
2024-01-20T10:02:57.385Z,29.50
2024-01-20T10:03:57.494Z,26.50
2024-01-20T10:04:57.428Z,25.20
2024-01-20T10:05:57.261Z,23.50
2024-01-20T10:06:57.221Z,26.60
2024-01-20T10:07:57.231Z,26.60
2024-01-20T10:08:57.251Z,27.10
2024-01-20T10:09:57.207Z,23.40
2024-01-20T10:10:57.243Z,26.30
2024-01-20T10:11:58.219Z,25.80
2024-01-20T10:12:57.382Z,24.90
2024-01-20T10:13:57.213Z,26.50
2024-01-20T10:14:57.275Z,24.60
2024-01-20T10:15:57.193Z,25.80
2024-01-20T10:16:57.159Z,26.10
2024-01-20T10:17:57.229Z,27.10
2024-01-20T10:18:57.149Z,27.90
2024-01-20T10:19:57.197Z,27.50
2024-01-20T10:20:57.122Z,25.40
2024-01-20T10:21:57.005Z,22.80
2024-01-20T10:22:57.286Z,24.80
2024-01-20T10:23:57.023Z,27.00
2024-01-20T10:24:57.023Z,23.50
2024-01-20T10:25:56.965Z,26.70
2024-01-20T10:26:57.045Z,23.50
2024-01-20T10:27:56.994Z,27.40
2024-01-20T10:28:56.973Z,25.20
2024-01-20T10:29:57.013Z,26.80
2024-01-20T10:30:56.995Z,26.60
2024-01-20T10:31:56.946Z,24.70
2024-01-20T10:33:04.582Z,27.50
2024-01-20T10:33:58.061Z,26.70
2024-01-20T10:34:57.036Z,25.10
2024-01-20T10:35:56.971Z,26.20
2024-01-20T10:36:56.894Z,27.20
2024-01-20T10:37:56.913Z,22.80
2024-01-20T10:38:57.673Z,27.30
2024-01-20T10:39:56.825Z,26.70
2024-01-20T10:40:56.787Z,27.30
2024-01-20T10:41:56.847Z,26.20
2024-01-20T10:42:56.800Z,28.60
2024-01-20T10:43:56.806Z,24.70
2024-01-20T10:44:56.768Z,26.80
2024-01-20T10:45:56.775Z,24.70
2024-01-20T10:46:56.727Z,24.70
2024-01-20T10:47:56.776Z,24.50
2024-01-20T10:48:56.846Z,23.30
2024-01-20T10:49:56.821Z,25.90
2024-01-20T10:50:56.765Z,24.50
2024-01-20T10:51:56.823Z,20.90
2024-01-20T10:52:56.950Z,24.20
2024-01-20T10:53:56.698Z,21.50
2024-01-20T10:54:56.664Z,20.10
2024-01-20T10:55:56.650Z,20.50
2024-01-20T10:56:56.682Z,21.30
2024-01-20T10:57:56.614Z,23.90
2024-01-20T10:58:56.712Z,24.00
2024-01-20T10:59:56.624Z,23.60
2024-01-20T11:00:56.687Z,20.20
2024-01-20T11:01:56.590Z,19.80
2024-01-20T11:02:56.570Z,23.30
2024-01-20T11:03:56.624Z,23.90
2024-01-20T11:04:56.541Z,23.20
2024-01-20T11:05:56.589Z,23.50
2024-01-20T11:06:56.605Z,21.20
2024-01-20T11:07:56.482Z,25.30
2024-01-20T11:08:56.529Z,21.60
2024-01-20T11:09:56.512Z,23.80
2024-01-20T11:10:56.479Z,26.10
2024-01-20T11:11:56.526Z,28.40
2024-01-20T11:12:56.916Z,20.60
2024-01-20T11:13:56.426Z,24.20
2024-01-20T11:14:56.509Z,21.60
2024-01-20T11:15:56.424Z,21.50
2024-01-20T11:16:56.393Z,23.70
2024-01-20T11:17:56.436Z,24.00
2024-01-20T11:18:56.470Z,25.40
2024-01-20T11:19:56.372Z,24.20
2024-01-20T11:20:56.388Z,23.40
2024-01-20T11:21:56.344Z,20.80
2024-01-20T11:22:56.380Z,18.80
2024-01-20T11:23:56.353Z,27.00
2024-01-20T11:24:56.723Z,25.30
2024-01-20T11:25:56.287Z,25.00
2024-01-20T11:26:56.272Z,22.10
2024-01-20T11:27:56.277Z,25.80
2024-01-20T11:28:56.260Z,25.60
2024-01-20T11:29:56.290Z,25.50
2024-01-20T11:30:56.268Z,25.70
2024-01-20T11:31:56.220Z,26.90
2024-01-20T11:32:56.268Z,28.20
2024-01-20T11:33:56.290Z,29.20
2024-01-20T11:34:56.216Z,28.00
2024-01-20T11:35:56.237Z,28.80
2024-01-20T11:36:56.220Z,24.20
2024-01-20T11:37:56.161Z,30.30
2024-01-20T11:38:56.166Z,27.80
2024-01-20T11:39:56.152Z,27.70
2024-01-20T11:40:56.130Z,28.40
2024-01-20T11:41:56.137Z,26.50
2024-01-20T11:42:56.099Z,25.90
2024-01-20T11:43:56.128Z,25.70
2024-01-20T11:44:56.067Z,28.20
2024-01-20T11:45:56.091Z,26.30
2024-01-20T11:46:56.073Z,22.40
2024-01-20T11:47:56.092Z,29.70
2024-01-20T11:48:56.221Z,24.10
2024-01-20T11:49:56.179Z,26.90
2024-01-20T11:50:56.035Z,25.80
2024-01-20T11:51:56.020Z,28.20
2024-01-20T11:52:56.180Z,28.70
2024-01-20T11:53:55.980Z,24.40
2024-01-20T11:54:56.014Z,24.10
2024-01-20T11:55:55.986Z,25.60
2024-01-20T11:56:56.015Z,23.70
2024-01-20T11:57:56.001Z,26.10
2024-01-20T11:58:55.990Z,27.50
2024-01-20T11:59:55.905Z,27.40
2024-01-20T12:00:56.709Z,23.10
2024-01-20T12:01:55.862Z,26.80
2024-01-20T12:02:55.970Z,26.40
2024-01-20T12:03:55.889Z,24.90
2024-01-20T12:05:01.807Z,21.70
2024-01-20T12:05:56.976Z,26.60
2024-01-20T12:06:55.999Z,26.40
2024-01-20T12:07:55.817Z,23.40
2024-01-20T12:08:55.792Z,24.30
2024-01-20T12:09:55.797Z,27.50
2024-01-20T12:10:55.795Z,24.00
2024-01-20T12:11:55.766Z,24.00
2024-01-20T12:12:55.757Z,24.50
2024-01-20T12:13:55.754Z,22.20
2024-01-20T12:14:55.740Z,23.30
2024-01-20T12:15:55.730Z,23.80
2024-01-20T12:16:55.746Z,21.30
2024-01-20T12:17:55.773Z,24.60
2024-01-20T12:18:55.773Z,22.90
2024-01-20T12:19:55.729Z,25.30
2024-01-20T12:20:55.686Z,26.30
2024-01-20T12:21:55.735Z,23.00
2024-01-20T12:22:55.705Z,23.90
2024-01-20T12:23:55.634Z,27.00
2024-01-20T12:24:55.745Z,25.00
2024-01-20T12:25:55.681Z,25.70
2024-01-20T12:26:55.597Z,24.90
2024-01-20T12:27:55.658Z,23.10
2024-01-20T12:28:55.570Z,22.30
2024-01-20T12:29:55.653Z,25.40
2024-01-20T12:30:55.554Z,22.50
2024-01-20T12:31:55.595Z,24.30
2024-01-20T12:32:55.593Z,25.30
2024-01-20T12:33:55.611Z,25.70
2024-01-20T12:34:55.518Z,24.20
2024-01-20T12:35:55.477Z,22.90
2024-01-20T12:36:55.495Z,27.70
2024-01-20T12:37:55.471Z,25.10
2024-01-20T12:38:55.457Z,22.10
2024-01-20T12:39:55.468Z,24.70
2024-01-20T12:40:55.431Z,22.40
2024-01-20T12:41:55.414Z,22.50
2024-01-20T12:42:55.409Z,25.40
2024-01-20T12:43:55.393Z,23.10
2024-01-20T12:44:55.373Z,23.50
2024-01-20T12:45:55.411Z,26.50
2024-01-20T12:46:55.386Z,26.20
2024-01-20T12:47:55.387Z,20.60
2024-01-20T12:48:55.424Z,26.90
2024-01-20T12:49:55.466Z,25.20
2024-01-20T12:50:55.359Z,24.60
2024-01-20T12:51:55.364Z,27.10